Terminal Aerodrome Forecast
Issued by NWS

Home | Current Version | Previous Version | Text Only | Print | Product List | Glossary On
Versions: 1 2 3 4 5 6 7 8 9 10 11 12
901
FTUS45 KVEF 241134
TAFBIH
TAF
KBIH 241134Z 2412/2512 35008KT P6SM SKC
     FM242000 27012KT P6SM BKN140
     FM250300 32012G18KT P6SM BKN140
     FM250600 34011KT P6SM SCT150=

USA.gov is the U.S. government's official web portal to all federal, state and local government web resources and services.